Time;durP1;ratioP1;P1;durP2;ratioP2;P2;SDS_P1;SDS_P2;PMS_P1;PMS_P2;Temp;Humidity;BMP_temperature;BMP_pressure;BME280_temperature;BME280_humidity;BME280_pressure;Samples;Min_cycle;Max_cycle;Signal;HPM_P1;HPM_P2
2022/05/09 00:01:54;;;;;;;10.40;4.13;;;7.00;99.90;;;;;;5044715;28;20396;-83
2022/05/09 00:04:20;;;;;;;9.23;4.07;;;7.00;99.90;;;;;;5043364;28;20484;-83
2022/05/09 00:06:47;;;;;;;8.52;4.15;;;7.00;99.90;;;;;;5044839;28;20382;-84
2022/05/09 00:09:13;;;;;;;9.07;4.50;;;7.00;99.90;;;;;;5045612;28;20370;-83
2022/05/09 00:11:39;;;;;;;9.10;3.72;;;7.00;99.90;;;;;;5028379;28;20380;-84
2022/05/09 00:14:05;;;;;;;12.48;4.55;;;6.90;99.90;;;;;;5044510;28;20384;-83
2022/05/09 00:16:34;;;;;;;8.25;3.83;;;6.90;99.90;;;;;;5045471;28;20401;-83
2022/05/09 00:19:04;;;;;;;8.10;3.70;;;7.00;99.90;;;;;;5046205;28;20463;-83
2022/05/09 00:21:38;;;;;;;9.50;4.40;;;6.90;99.90;;;;;;5036288;28;20732;-82
2022/05/09 00:24:04;;;;;;;11.02;4.40;;;6.90;99.90;;;;;;5035930;28;20393;-82
2022/05/09 00:26:31;;;;;;;11.93;4.53;;;6.80;99.90;;;;;;5035516;28;20844;-82
2022/05/09 00:29:02;;;;;;;11.70;4.50;;;6.90;99.90;;;;;;5021884;28;20401;-82
2022/05/09 00:31:29;;;;;;;8.55;4.30;;;6.80;99.90;;;;;;5020389;28;20864;-84
2022/05/09 00:33:55;;;;;;;8.65;4.32;;;6.70;99.90;;;;;;5021424;28;20373;-82
2022/05/09 00:36:21;;;;;;;9.77;4.17;;;6.80;99.90;;;;;;5020595;28;20381;-84
2022/05/09 00:38:49;;;;;;;10.02;4.22;;;6.80;99.90;;;;;;5021385;28;20373;-82
2022/05/09 00:44:07;;;;;;;12.50;4.57;;;6.70;99.90;;;;;;5038921;28;20774;-83
2022/05/09 00:46:33;;;;;;;11.73;4.43;;;6.60;99.90;;;;;;5019442;28;20761;-82
2022/05/09 00:49:22;;;;;;;10.45;4.65;;;6.50;99.90;;;;;;5021195;28;20388;-82
2022/05/09 00:52:06;;;;;;;10.43;4.53;;;6.50;99.90;;;;;;5006502;28;20867;-82
2022/05/09 00:54:54;;;;;;;9.13;4.67;;;6.40;99.90;;;;;;5041036;28;20461;-82
2022/05/09 00:57:52;;;;;;;10.55;4.45;;;6.30;99.90;;;;;;5039356;28;20744;-82
2022/05/09 01:00:20;;;;;;;9.73;4.32;;;6.20;99.90;;;;;;5022214;28;20724;-82
2022/05/09 01:02:49;;;;;;;9.45;4.40;;;6.10;99.90;;;;;;5041397;28;20377;-82
2022/05/09 01:05:16;;;;;;;10.98;4.78;;;6.10;99.90;;;;;;5024935;28;20389;-82
2022/05/09 01:07:43;;;;;;;12.40;4.70;;;6.00;99.90;;;;;;5023597;28;20443;-82
2022/05/09 01:10:16;;;;;;;10.23;4.70;;;6.00;99.90;;;;;;5021556;28;20390;-82
2022/05/09 01:12:45;;;;;;;10.70;4.83;;;6.00;99.90;;;;;;5036455;28;20468;-85
2022/05/09 01:15:15;;;;;;;10.63;4.85;;;5.90;99.90;;;;;;5018635;28;20396;-81
2022/05/09 01:17:41;;;;;;;9.02;4.78;;;5.90;99.90;;;;;;5019162;28;20453;-83
2022/05/09 01:20:10;;;;;;;10.23;4.38;;;5.80;99.90;;;;;;5020873;28;20421;-82
2022/05/09 01:22:37;;;;;;;10.90;5.00;;;5.70;99.90;;;;;;5037719;28;20412;-84
2022/05/09 01:25:09;;;;;;;12.50;4.78;;;5.70;99.90;;;;;;5021515;28;20737;-81
2022/05/09 01:27:38;;;;;;;9.52;4.82;;;5.70;99.90;;;;;;5040742;28;20398;-81
2022/05/09 01:30:26;;;;;;;9.45;4.82;;;5.60;99.90;;;;;;5039691;28;20433;-81
2022/05/09 01:33:00;;;;;;;10.95;4.38;;;5.60;99.90;;;;;;5011438;28;20381;-81
2022/05/09 01:35:38;;;;;;;10.70;4.53;;;5.60;99.90;;;;;;5038149;28;20433;-81
2022/05/09 01:38:18;;;;;;;12.90;5.28;;;5.60;99.90;;;;;;5039294;28;20373;-81
2022/05/09 01:40:44;;;;;;;13.70;5.15;;;5.50;99.90;;;;;;5020762;28;20899;-81
2022/05/09 01:43:10;;;;;;;12.40;4.90;;;5.40;99.90;;;;;;5038089;28;20377;-81
2022/05/09 01:45:35;;;;;;;13.30;5.70;;;5.40;99.90;;;;;;5039648;28;20373;-81
2022/05/09 01:50:46;;;;;;;9.82;5.10;;;5.40;99.90;;;;;;5038259;28;20894;-83
2022/05/09 01:53:11;;;;;;;10.53;4.93;;;5.30;99.90;;;;;;5038674;28;20404;-81
2022/05/09 01:55:37;;;;;;;11.95;5.38;;;5.30;99.90;;;;;;5037998;28;20385;-81
2022/05/09 01:58:04;;;;;;;11.80;5.77;;;5.20;99.90;;;;;;5039047;28;20381;-81
2022/05/09 02:00:32;;;;;;;11.70;5.72;;;5.20;99.90;;;;;;5037800;28;20408;-82
2022/05/09 02:03:01;;;;;;;12.95;6.20;;;5.20;99.90;;;;;;5022211;28;20725;-83
2022/05/09 02:05:26;;;;;;;14.75;5.90;;;5.30;99.90;;;;;;5040747;28;20380;-82
2022/05/09 02:07:53;;;;;;;11.23;5.20;;;5.40;99.90;;;;;;5021488;28;20814;-82
2022/05/09 02:10:19;;;;;;;10.80;5.53;;;5.30;99.90;;;;;;5039907;28;20373;-84
2022/05/09 02:12:45;;;;;;;14.57;5.40;;;5.40;99.90;;;;;;5040134;28;20441;-82
2022/05/09 02:15:11;;;;;;;11.70;5.17;;;5.30;99.90;;;;;;5022171;28;20459;-82
2022/05/09 02:17:37;;;;;;;11.55;5.63;;;5.20;99.90;;;;;;5040122;28;20380;-80
2022/05/09 02:20:05;;;;;;;9.25;5.07;;;5.10;99.90;;;;;;5022713;28;20417;-81
2022/05/09 02:22:31;;;;;;;11.65;5.10;;;5.10;99.90;;;;;;5040886;28;20370;-82
2022/05/09 02:24:56;;;;;;;7.65;4.75;;;5.10;99.90;;;;;;5039403;28;20534;-81
2022/05/09 02:27:23;;;;;;;10.47;5.23;;;5.10;99.90;;;;;;5040655;28;20373;-81
2022/05/09 02:29:48;;;;;;;9.68;4.95;;;5.00;99.90;;;;;;5041402;28;20401;-80
2022/05/09 02:32:15;;;;;;;10.37;5.17;;;4.90;99.90;;;;;;5041030;28;20431;-81
2022/05/09 02:34:40;;;;;;;11.18;5.57;;;4.80;99.90;;;;;;5041934;28;20403;-82
2022/05/09 02:37:06;;;;;;;11.73;5.18;;;4.80;99.90;;;;;;5021769;28;20385;-82
2022/05/09 02:39:31;;;;;;;12.80;5.27;;;4.80;99.90;;;;;;5040761;28;20395;-81
2022/05/09 02:41:59;;;;;;;13.33;6.17;;;4.90;99.90;;;;;;5041154;28;20381;-81
2022/05/09 02:44:27;;;;;;;11.10;5.40;;;4.90;99.90;;;;;;5038503;28;20374;-81
2022/05/09 02:46:52;;;;;;;18.20;7.43;;;4.80;99.90;;;;;;5022355;28;20441;-81
2022/05/09 02:49:19;;;;;;;10.23;5.67;;;4.80;99.90;;;;;;5019569;28;20888;-83
2022/05/09 02:51:46;;;;;;;9.68;5.68;;;4.80;99.90;;;;;;5038372;28;20380;-81
2022/05/09 02:54:12;;;;;;;10.95;5.57;;;4.70;99.90;;;;;;5039007;28;20361;-83
2022/05/09 02:56:37;;;;;;;13.80;6.00;;;4.80;99.90;;;;;;5040455;28;21014;-83
2022/05/09 02:59:03;;;;;;;14.30;5.83;;;4.70;99.90;;;;;;5041442;28;20365;-82
2022/05/09 03:01:28;;;;;;;10.02;6.07;;;4.70;99.90;;;;;;5023020;28;20400;-82
2022/05/09 03:06:38;;;;;;;11.85;6.15;;;4.60;99.90;;;;;;5041789;28;20392;-81
2022/05/09 03:09:04;;;;;;;12.73;6.35;;;4.60;99.90;;;;;;5023739;28;20374;-82
2022/05/09 03:11:30;;;;;;;13.73;5.68;;;4.60;99.90;;;;;;5023442;28;20386;-82
2022/05/09 03:13:56;;;;;;;10.43;5.90;;;4.60;99.90;;;;;;5023006;28;20737;-83
2022/05/09 03:16:22;;;;;;;11.20;6.00;;;4.70;99.90;;;;;;5040427;28;20388;-83
2022/05/09 03:18:47;;;;;;;13.13;6.23;;;4.60;99.90;;;;;;5040406;28;20464;-83
2022/05/09 03:21:13;;;;;;;11.80;6.17;;;4.60;99.90;;;;;;5042074;28;20454;-82
2022/05/09 03:23:39;;;;;;;12.83;5.83;;;4.60;99.90;;;;;;5042120;28;20535;-82
2022/05/09 03:26:04;;;;;;;13.82;6.13;;;4.60;99.90;;;;;;5040234;28;20377;-82
2022/05/09 03:28:30;;;;;;;15.37;7.73;;;4.60;99.90;;;;;;5021877;28;20373;-83
2022/05/09 03:30:57;;;;;;;10.73;5.90;;;4.60;99.90;;;;;;5039651;28;20853;-83
2022/05/09 03:33:26;;;;;;;13.02;6.78;;;4.60;99.90;;;;;;5042512;28;20879;-82
2022/05/09 03:35:53;;;;;;;13.40;7.20;;;4.60;99.90;;;;;;5043738;28;20397;-81
2022/05/09 03:38:19;;;;;;;13.85;6.95;;;4.70;99.90;;;;;;5027933;28;20389;-82
2022/05/09 03:40:45;;;;;;;16.75;6.97;;;4.70;99.90;;;;;;5044323;28;20404;-83
2022/05/09 03:43:11;;;;;;;12.18;6.57;;;4.70;99.90;;;;;;5026195;28;20393;-82
2022/05/09 03:45:40;;;;;;;14.85;6.88;;;4.70;99.90;;;;;;5028123;28;20385;-83
2022/05/09 03:48:06;;;;;;;15.52;6.97;;;4.80;99.90;;;;;;5027654;28;20450;-82
2022/05/09 03:50:32;;;;;;;13.02;5.85;;;4.70;99.90;;;;;;5045702;28;20384;-82
2022/05/09 03:52:58;;;;;;;13.47;7.40;;;4.80;99.90;;;;;;5042360;28;20409;-82
2022/05/09 03:55:23;;;;;;;12.03;6.87;;;4.90;99.90;;;;;;5023337;28;20377;-82
2022/05/09 03:57:55;;;;;;;16.23;7.63;;;4.90;99.90;;;;;;5038909;28;20393;-84
2022/05/09 04:00:24;;;;;;;13.23;7.45;;;5.00;99.90;;;;;;5020599;28;20747;-81
2022/05/09 04:02:50;;;;;;;17.35;9.55;;;5.10;99.90;;;;;;5038908;28;20374;-82
2022/05/09 04:05:17;;;;;;;17.25;7.63;;;5.10;99.90;;;;;;5021846;28;20373;-83
2022/05/09 04:07:52;;;;;;;17.60;7.88;;;5.20;99.90;;;;;;5022766;28;20794;-82
2022/05/09 04:10:24;;;;;;;17.70;8.23;;;5.20;99.90;;;;;;5020998;28;20890;-82
2022/05/09 04:12:50;;;;;;;12.43;7.45;;;5.30;99.90;;;;;;5039804;28;20373;-82
2022/05/09 04:18:01;;;;;;;22.30;9.77;;;5.50;99.90;;;;;;5037842;28;20372;-82
2022/05/09 04:20:30;;;;;;;20.93;10.70;;;5.60;99.90;;;;;;5038729;28;20406;-81
2022/05/09 04:22:57;;;;;;;19.95;10.98;;;5.70;99.90;;;;;;5039644;28;20370;-81
2022/05/09 04:25:23;;;;;;;23.90;11.33;;;5.80;99.90;;;;;;5045720;28;20787;-82
2022/05/09 04:27:49;;;;;;;22.17;11.67;;;6.00;99.90;;;;;;5047511;28;20854;-82
2022/05/09 04:30:15;;;;;;;24.73;12.18;;;6.20;99.90;;;;;;5030578;28;20424;-82
2022/05/09 04:32:41;;;;;;;22.88;12.82;;;6.30;99.90;;;;;;5043912;28;20381;-81
2022/05/09 04:35:11;;;;;;;24.73;12.63;;;6.40;99.90;;;;;;5042675;28;20373;-82
2022/05/09 04:37:39;;;;;;;23.48;12.45;;;6.50;99.90;;;;;;5025915;28;20420;-83
2022/05/09 04:40:06;;;;;;;24.05;11.68;;;8.10;99.90;;;;;;5024957;28;20427;-82
2022/05/09 04:42:31;;;;;;;20.80;10.70;;;7.10;99.90;;;;;;5042747;28;20365;-84
2022/05/09 04:44:57;;;;;;;22.70;11.27;;;7.30;99.90;;;;;;5041103;28;20859;-82
2022/05/09 04:47:22;;;;;;;22.40;11.03;;;7.50;99.90;;;;;;5041731;28;20818;-82
2022/05/09 04:49:48;;;;;;;21.83;10.65;;;7.60;99.90;;;;;;5039789;28;20373;-82
2022/05/09 04:52:14;;;;;;;19.60;10.37;;;7.70;99.90;;;;;;5039872;28;20384;-83
2022/05/09 04:54:39;;;;;;;18.20;10.60;;;7.80;99.90;;;;;;5021646;28;20380;-83
2022/05/09 04:57:05;;;;;;;18.42;10.40;;;8.10;99.90;;;;;;5042090;28;20397;-82
2022/05/09 04:59:32;;;;;;;20.58;9.95;;;8.30;99.90;;;;;;5040737;28;20401;-84
2022/05/09 05:01:57;;;;;;;17.63;8.93;;;8.50;99.90;;;;;;5023269;28;20386;-85
2022/05/09 05:04:23;;;;;;;20.27;8.73;;;8.70;99.90;;;;;;5040701;28;20420;-84
2022/05/09 05:06:48;;;;;;;16.48;8.50;;;9.00;99.90;;;;;;5040651;28;20384;-83
2022/05/09 05:09:14;;;;;;;17.40;9.03;;;9.40;99.90;;;;;;5042162;28;20766;-82
2022/05/09 05:11:39;;;;;;;17.63;7.90;;;9.60;99.90;;;;;;5040026;28;20373;-82
2022/05/09 05:14:05;;;;;;;23.57;9.30;;;9.70;99.90;;;;;;5024697;28;20721;-82
2022/05/09 05:17:16;;;;;;;16.07;9.63;;;9.80;99.90;;;;;;5018921;28;20463;-81
2022/05/09 05:19:16;;;;;;;19.42;9.52;;;9.70;99.90;;;;;;5024668;28;20394;-83
2022/05/09 05:21:43;;;;;;;19.83;10.98;;;9.60;99.90;;;;;;5035430;28;20883;-84
2022/05/09 05:24:09;;;;;;;18.00;10.63;;;9.50;99.90;;;;;;5017916;28;20444;-83
2022/05/09 05:26:34;;;;;;;20.83;11.90;;;9.30;99.90;;;;;;5018121;28;20378;-84
2022/05/09 05:29:00;;;;;;;19.35;11.50;;;9.20;99.90;;;;;;5036134;28;20366;-85
2022/05/09 05:31:26;;;;;;;21.67;10.83;;;9.10;99.90;;;;;;5019751;28;20920;-84
2022/05/09 05:33:52;;;;;;;16.95;10.68;;;9.00;99.90;;;;;;5035034;28;20369;-84
2022/05/09 05:36:20;;;;;;;19.43;10.20;;;9.20;99.90;;;;;;5020057;28;20381;-82
2022/05/09 05:38:51;;;;;;;20.70;9.98;;;9.50;99.90;;;;;;5037132;28;20400;-85
2022/05/09 05:41:20;;;;;;;19.85;11.63;;;9.70;99.90;;;;;;5037490;28;20401;-84
2022/05/09 05:43:47;;;;;;;22.83;11.35;;;9.70;99.90;;;;;;5038614;28;20872;-82
2022/05/09 05:46:13;;;;;;;20.80;10.80;;;9.60;99.90;;;;;;5018736;28;20385;-82
2022/05/09 05:48:40;;;;;;;20.80;10.43;;;9.70;99.90;;;;;;5036251;28;20381;-82
2022/05/09 05:51:05;;;;;;;25.83;11.00;;;10.00;99.90;;;;;;5018076;28;20374;-83
2022/05/09 05:53:31;;;;;;;18.27;11.10;;;10.00;99.90;;;;;;5036089;28;20468;-82
2022/05/09 05:55:57;;;;;;;17.25;10.82;;;10.00;99.90;;;;;;5036379;28;20428;-81
2022/05/09 05:58:23;;;;;;;17.25;10.90;;;10.10;99.90;;;;;;5036439;28;20384;-82
2022/05/09 06:00:49;;;;;;;18.45;10.18;;;10.20;99.90;;;;;;5037012;28;20401;-85
2022/05/09 06:03:15;;;;;;;19.33;10.70;;;10.30;99.90;;;;;;5036411;28;20463;-85
2022/05/09 06:05:42;;;;;;;20.83;11.40;;;10.50;99.90;;;;;;5016367;28;20389;-83
2022/05/09 06:08:08;;;;;;;16.70;10.52;;;10.50;99.90;;;;;;5018865;28;20892;-85
2022/05/09 06:10:34;;;;;;;19.33;10.60;;;10.60;99.90;;;;;;5017368;28;20389;-84
2022/05/09 06:13:03;;;;;;;17.13;10.38;;;10.70;99.90;;;;;;5039143;28;20385;-82
2022/05/09 06:15:32;;;;;;;17.47;10.60;;;10.90;99.90;;;;;;5040209;28;20377;-82
2022/05/09 06:17:59;;;;;;;17.37;9.80;;;11.00;99.90;;;;;;5025672;28;20413;-83
2022/05/09 06:20:26;;;;;;;17.92;10.05;;;11.00;99.90;;;;;;5024006;28;20389;-83
2022/05/09 06:22:54;;;;;;;20.48;10.40;;;11.20;99.90;;;;;;5021490;28;20386;-82
2022/05/09 06:25:21;;;;;;;19.55;10.07;;;11.20;99.90;;;;;;5040804;28;20380;-83
2022/05/09 06:27:47;;;;;;;17.73;9.02;;;11.40;99.90;;;;;;5020647;28;20457;-83
2022/05/09 06:30:15;;;;;;;18.67;8.75;;;11.50;99.90;;;;;;5035385;28;20381;-83
2022/05/09 06:32:41;;;;;;;13.85;8.40;;;11.90;99.90;;;;;;5036152;28;20763;-82
2022/05/09 06:35:14;;;;;;;13.95;8.15;;;12.30;99.90;;;;;;5036707;28;20452;-83
2022/05/09 06:37:40;;;;;;;16.02;7.93;;;12.60;99.90;;;;;;5038633;28;20386;-83
2022/05/09 06:40:08;;;;;;;14.55;7.68;;;12.90;99.90;;;;;;5041726;28;20416;-82
2022/05/09 06:42:35;;;;;;;16.23;8.65;;;13.00;99.90;;;;;;5022714;28;20372;-84
2022/05/09 06:45:01;;;;;;;55.38;11.90;;;13.20;99.90;;;;;;5037206;28;20863;-83
2022/05/09 06:47:27;;;;;;;13.10;7.40;;;13.60;99.90;;;;;;5032768;28;20385;-82
2022/05/09 06:49:53;;;;;;;11.85;7.20;;;14.10;99.90;;;;;;5035780;28;20375;-81
2022/05/09 06:52:18;;;;;;;14.17;7.67;;;14.30;99.90;;;;;;5034200;28;20373;-81
2022/05/09 06:54:44;;;;;;;31.30;9.30;;;14.50;99.90;;;;;;5033843;28;20380;-83
2022/05/09 06:57:10;;;;;;;13.55;7.70;;;14.80;99.90;;;;;;5015705;28;20784;-81
2022/05/09 06:59:35;;;;;;;16.67;7.47;;;15.00;99.90;;;;;;5032878;28;20393;-84
2022/05/09 07:02:01;;;;;;;14.18;7.68;;;15.20;99.90;;;;;;5014634;28;20385;-82
2022/05/09 07:04:27;;;;;;;16.77;7.53;;;15.40;99.90;;;;;;5034114;28;20855;-81
2022/05/09 07:06:53;;;;;;;11.98;6.43;;;15.70;99.90;;;;;;5032441;28;20720;-83
2022/05/09 07:09:19;;;;;;;14.00;6.70;;;15.90;99.90;;;;;;5023863;28;20915;-81
2022/05/09 07:11:45;;;;;;;11.35;6.03;;;15.90;99.90;;;;;;5037518;28;20378;-82
2022/05/09 07:14:11;;;;;;;12.80;5.97;;;16.10;99.90;;;;;;5051928;28;20383;-81
2022/05/09 07:16:36;;;;;;;10.75;6.50;;;16.20;99.90;;;;;;5053492;28;20884;-82
2022/05/09 07:19:06;;;;;;;11.33;6.40;;;16.10;99.90;;;;;;5053464;28;20474;-82
2022/05/09 07:21:32;;;;;;;12.32;6.82;;;15.80;99.90;;;;;;5052844;28;20403;-83
2022/05/09 07:23:59;;;;;;;12.82;6.63;;;15.80;99.90;;;;;;5052976;28;20378;-83
2022/05/09 07:26:24;;;;;;;10.73;6.68;;;15.70;99.90;;;;;;5050660;28;20408;-84
2022/05/09 07:28:50;;;;;;;12.38;6.55;;;15.90;99.90;;;;;;5051481;28;20403;-83
2022/05/09 07:31:15;;;;;;;11.30;6.73;;;16.10;99.90;;;;;;5033035;28;20440;-84
2022/05/09 07:33:43;;;;;;;14.48;6.13;;;16.30;99.90;;;;;;5034842;28;20386;-84
2022/05/09 07:36:08;;;;;;;11.23;5.88;;;16.60;99.90;;;;;;5051233;28;20375;-84
2022/05/09 07:38:34;;;;;;;11.00;6.50;;;16.90;99.90;;;;;;5033709;28;20733;-84
2022/05/09 07:40:59;;;;;;;10.63;5.97;;;17.30;99.90;;;;;;5036285;28;20431;-83
2022/05/09 07:43:28;;;;;;;11.47;6.43;;;17.40;99.90;;;;;;5051528;28;20372;-83
2022/05/09 07:45:55;;;;;;;12.48;5.88;;;17.40;99.90;;;;;;5032348;28;20459;-84
2022/05/09 07:48:22;;;;;;;13.27;6.37;;;17.50;99.90;;;;;;5041848;28;20443;-83
2022/05/09 07:50:49;;;;;;;10.93;6.22;;;17.70;99.90;;;;;;5040106;28;20454;-85
2022/05/09 07:53:25;;;;;;;10.20;6.13;;;17.60;99.90;;;;;;5042956;28;20393;-85
2022/05/09 07:55:50;;;;;;;11.85;6.45;;;17.60;99.90;;;;;;5023559;28;20392;-82
2022/05/09 07:58:17;;;;;;;11.32;5.80;;;17.30;99.90;;;;;;5040854;28;20366;-84
2022/05/09 08:00:43;;;;;;;12.90;6.40;;;17.30;99.90;;;;;;5021863;28;20393;-82
2022/05/09 08:03:18;;;;;;;10.23;5.85;;;17.50;99.90;;;;;;5024041;28;20360;-84
2022/05/09 08:05:44;;;;;;;12.02;5.70;;;17.60;99.90;;;;;;5041624;28;20379;-84
2022/05/09 08:08:10;;;;;;;12.70;6.18;;;17.60;99.90;;;;;;5025930;28;20420;-84
2022/05/09 08:10:37;;;;;;;10.75;6.38;;;17.60;99.90;;;;;;5043495;28;20424;-83
2022/05/09 08:13:06;;;;;;;96.07;13.87;;;17.60;99.90;;;;;;5021173;28;20740;-83
2022/05/09 08:15:34;;;;;;;19.42;6.93;;;17.60;99.90;;;;;;5042753;28;20397;-84
2022/05/09 08:18:01;;;;;;;9.50;5.13;;;17.50;99.90;;;;;;5041944;28;20379;-82
2022/05/09 08:20:30;;;;;;;10.18;5.97;;;17.70;99.90;;;;;;5022377;28;20402;-83
2022/05/09 08:23:00;;;;;;;10.82;5.03;;;17.70;99.90;;;;;;5020165;28;20447;-85
2022/05/09 08:25:30;;;;;;;10.47;5.70;;;;;;;;;;5017402;28;20390;-86
2022/05/09 08:27:55;;;;;;;12.60;5.90;;;18.50;99.90;;;;;;5022740;28;20364;-83
2022/05/09 08:30:21;;;;;;;11.27;5.13;;;18.70;99.90;;;;;;5040999;28;20884;-84
2022/05/09 08:32:46;;;;;;;12.67;5.97;;;18.80;99.90;;;;;;5040361;28;20387;-84
2022/05/09 08:35:13;;;;;;;11.77;5.50;;;18.80;99.50;;;;;;5031020;28;20384;-83
2022/05/09 08:37:39;;;;;;;8.37;5.13;;;18.90;99.10;;;;;;5020291;28;20928;-84
2022/05/09 08:40:06;;;;;;;10.60;5.43;;;18.90;97.40;;;;;;5039779;28;20398;-83
2022/05/09 08:42:58;;;;;;;10.50;4.97;;;18.40;98.40;;;;;;5020083;28;20887;-85
2022/05/09 08:45:37;;;;;;;12.57;5.00;;;18.20;98.60;;;;;;5041224;28;20464;-84
2022/05/09 08:48:05;;;;;;;9.85;4.82;;;18.50;99.90;;;;;;5020001;28;20393;-86
2022/05/09 08:51:20;;;;;;;10.07;5.55;;;18.70;98.80;;;;;;5042258;28;20805;-83
2022/05/09 08:53:55;;;;;;;23.88;6.13;;;18.60;97.60;;;;;;5040576;28;20464;-84
2022/05/09 08:56:22;;;;;;;9.63;5.40;;;;;;;;;;5023360;28;20393;-83
2022/05/09 08:58:51;;;;;;;22.63;7.13;;;;;;;;;;5041026;28;21073;-83
2022/05/09 09:01:26;;;;;;;8.43;4.38;;;;;;;;;;5023036;28;20401;-83
2022/05/09 09:03:58;;;;;;;11.23;4.82;;;;;;;;;;5021313;28;20546;-84
2022/05/09 09:06:48;;;;;;;11.80;5.90;;;;;;;;;;5020669;28;20391;-83
2022/05/09 09:09:28;;;;;;;8.65;4.53;;;;;;;;;;5022745;28;20740;-84
2022/05/09 09:11:59;;;;;;;10.73;5.20;;;19.40;96.50;;;;;;5044069;28;20467;-82
2022/05/09 09:14:30;;;;;;;8.02;4.68;;;19.40;97.10;;;;;;5025946;28;20377;-82
2022/05/09 09:17:24;;;;;;;9.88;4.15;;;19.70;95.00;;;;;;5043085;28;20387;-83
2022/05/09 09:19:57;;;;;;;11.40;4.90;;;;;;;;;;5042404;28;20907;-82
2022/05/09 09:22:54;;;;;;;8.57;4.43;;;19.40;99.90;;;;;;5024271;28;20858;-83
2022/05/09 09:25:35;;;;;;;21.85;5.80;;;;;;;;;;5043549;28;20373;-82
2022/05/09 09:28:18;;;;;;;8.75;4.40;;;19.50;95.20;;;;;;5025454;28;20388;-85
2022/05/09 09:30:46;;;;;;;12.05;3.70;;;;;;;;;;5025105;28;20388;-83
2022/05/09 09:33:15;;;;;;;7.93;4.22;;;19.40;93.60;;;;;;5042442;28;20458;-81
2022/05/09 09:35:51;;;;;;;19.00;4.43;;;19.60;93.00;;;;;;5025922;28;20894;-84
2022/05/09 09:38:32;;;;;;;10.73;4.28;;;;;;;;;;5041861;28;20449;-85
2022/05/09 09:41:15;;;;;;;8.25;3.80;;;19.30;99.90;;;;;;5040867;28;20401;-81
2022/05/09 09:43:41;;;;;;;9.90;3.57;;;;;;;;;;5042882;28;20465;-82
2022/05/09 09:46:07;;;;;;;8.75;3.80;;;19.70;90.20;;;;;;5043624;28;20408;-83
2022/05/09 09:48:34;;;;;;;19.70;4.13;;;19.80;88.40;;;;;;5044094;28;20396;-82
2022/05/09 09:51:10;;;;;;;10.95;3.85;;;19.80;88.60;;;;;;5044944;28;20379;-83
2022/05/09 09:53:50;;;;;;;10.63;4.20;;;19.70;90.40;;;;;;5041443;28;20379;-84
2022/05/09 09:56:22;;;;;;;7.35;3.83;;;19.70;90.40;;;;;;5023906;28;20424;-84
2022/05/09 09:58:50;;;;;;;7.78;3.78;;;20.10;86.90;;;;;;5040160;28;20389;-82
2022/05/09 10:01:25;;;;;;;13.73;4.13;;;20.20;88.50;;;;;;5043702;28;20402;-80
2022/05/09 10:04:27;;;;;;;7.88;3.97;;;20.20;85.40;;;;;;5043864;28;20386;-80
2022/05/09 10:07:14;;;;;;;8.32;3.70;;;19.70;84.40;;;;;;4986658;28;20373;-83
2022/05/09 10:09:46;;;;;;;7.32;3.83;;;19.40;87.80;;;;;;5015233;28;20397;-82
2022/05/09 10:12:22;;;;;;;8.30;3.85;;;19.40;89.40;;;;;;5033139;28;20378;-86
2022/05/09 10:14:48;;;;;;;9.43;3.90;;;19.60;87.90;;;;;;5032761;28;20732;-84
2022/05/09 10:17:33;;;;;;;8.93;4.17;;;19.60;87.70;;;;;;5026647;28;20854;-83
2022/05/09 10:20:20;;;;;;;8.45;3.80;;;19.70;90.20;;;;;;5048354;28;20404;-83
2022/05/09 10:25:33;;;;;;;8.55;3.88;;;19.70;86.20;;;;;;5042361;28;21011;-83
2022/05/09 10:28:20;;;;;;;9.45;3.42;;;19.80;86.80;;;;;;5039612;28;20372;-83
2022/05/09 10:30:52;;;;;;;9.80;4.13;;;19.80;87.50;;;;;;5041878;28;20479;-83
2022/05/09 10:34:12;;;;;;;9.25;4.20;;;19.80;84.10;;;;;;5042837;28;20483;-83
2022/05/09 10:37:03;;;;;;;8.50;3.88;;;19.80;99.90;;;;;;4968369;28;20789;-84
2022/05/09 10:39:36;;;;;;;8.15;3.67;;;19.90;99.90;;;;;;5033996;28;20398;-84
2022/05/09 10:42:12;;;;;;;8.40;3.30;;;20.10;99.90;;;;;;5042426;28;20413;-83
2022/05/09 10:44:49;;;;;;;6.97;3.33;;;;;;;;;;5041029;28;20411;-81
2022/05/09 10:47:22;;;;;;;8.05;3.75;;;;;;;;;;5041297;28;20378;-84
2022/05/09 10:49:52;;;;;;;10.07;3.47;;;;;;;;;;5042134;28;20480;-86
2022/05/09 10:52:23;;;;;;;13.40;4.22;;;;;;;;;;5042124;28;20403;-85
2022/05/09 10:55:08;;;;;;;9.35;4.13;;;;;;;;;;5035834;28;20401;-83
2022/05/09 10:58:00;;;;;;;9.55;3.53;;;;;;;;;;5039196;28;20445;-84
2022/05/09 11:00:26;;;;;;;10.40;3.10;;;;;;;;;;5021248;28;20915;-84
2022/05/09 11:03:10;;;;;;;20.38;4.38;;;;;;;;;;5044642;28;20389;-83
2022/05/09 11:05:45;;;;;;;9.00;3.23;;;;;;;;;;5038947;28;20393;-88
2022/05/09 11:08:17;;;;;;;9.05;3.53;;;;;;;;;;5026439;28;20383;-83
2022/05/09 11:10:43;;;;;;;9.70;3.70;;;;;;;;;;5007927;28;20419;-84
2022/05/09 11:13:10;;;;;;;7.23;3.87;;;;;;;;;;5022680;28;20881;-84
2022/05/09 11:15:51;;;;;;;8.88;3.70;;;;;;;;;;5030149;28;20369;-85
2022/05/09 11:18:26;;;;;;;7.57;4.20;;;;;;;;;;5039632;28;20391;-84
2022/05/09 11:20:58;;;;;;;6.78;3.50;;;;;;;;;;5033437;28;20390;-85
2022/05/09 11:23:24;;;;;;;9.70;3.78;;;;;;;;;;5024473;28;20379;-86
2022/05/09 11:25:50;;;;;;;8.90;3.92;;;;;;;;;;5021857;28;20368;-85
2022/05/09 11:28:16;;;;;;;8.20;3.80;;;;;;;;;;5039115;28;20391;-84
2022/05/09 11:30:58;;;;;;;11.57;3.97;;;;;;;;;;5022459;28;20532;-84
2022/05/09 11:33:34;;;;;;;8.85;3.75;;;;;;;;;;5052582;28;20392;-85
2022/05/09 11:36:07;;;;;;;9.32;3.70;;;;;;;;;;5020727;28;20738;-84
2022/05/09 11:38:42;;;;;;;10.93;3.88;;;;;;;;;;5041955;28;20423;-87
2022/05/09 11:41:25;;;;;;;8.93;4.10;;;;;;;;;;5041527;28;20422;-86
2022/05/09 11:44:07;;;;;;;8.63;3.85;;;;;;;;;;5031790;28;20362;-85
2022/05/09 11:46:53;;;;;;;17.48;4.80;;;;;;;;;;5043918;28;20428;-84
2022/05/09 11:49:37;;;;;;;10.00;4.37;;;;;;;;;;5042961;28;20378;-84
2022/05/09 11:52:07;;;;;;;10.30;4.27;;;;;;;;;;5037228;28;20737;-84
2022/05/09 11:54:47;;;;;;;19.45;4.53;;;;;;;;;;5041503;28;20371;-84
2022/05/09 11:57:23;;;;;;;9.75;3.92;;;;;;;;;;5040544;28;20368;-84
2022/05/09 12:00:02;;;;;;;7.93;3.70;;;;;;;;;;5023892;28;21062;-84
2022/05/09 12:02:45;;;;;;;13.32;4.30;;;;;;;;;;5041030;28;20366;-85
2022/05/09 12:05:26;;;;;;;11.80;4.38;;;;;;;;;;5041035;28;20381;-86
2022/05/09 12:08:11;;;;;;;8.13;4.22;;;;;;;;;;5040986;28;20381;-84
2022/05/09 12:10:38;;;;;;;8.50;3.92;;;;;;;;;;5025628;28;20449;-85
2022/05/09 12:13:05;;;;;;;10.47;4.40;;;;;;;;;;5022476;28;20380;-83
2022/05/09 12:15:37;;;;;;;9.50;3.67;;;;;;;;;;5023255;28;20380;-87
2022/05/09 12:18:06;;;;;;;8.23;3.83;;;;;;;;;;5041216;28;20377;-85
2022/05/09 12:20:38;;;;;;;7.88;3.80;;;;;;;;;;5021598;28;20389;-84
2022/05/09 12:23:11;;;;;;;8.85;3.65;;;;;;;;;;5039179;28;20414;-85
2022/05/09 12:25:40;;;;;;;8.57;4.20;;;;;;;;;;5021532;28;20377;-85
2022/05/09 12:28:19;;;;;;;8.82;3.78;;;;;;;;;;5023379;28;20900;-84
2022/05/09 12:30:48;;;;;;;10.05;3.78;;;;;;;;;;5034741;28;20368;-85
2022/05/09 12:33:14;;;;;;;7.95;3.85;;;;;;;;;;5040587;28;20387;-84
2022/05/09 12:35:41;;;;;;;7.50;3.47;;;;;;;;;;5039662;28;20728;-85
2022/05/09 12:38:10;;;;;;;6.75;3.70;;;;;;;;;;5039819;28;20438;-83
2022/05/09 12:40:36;;;;;;;9.43;3.45;;;;;;;;;;5022980;28;20404;-85
2022/05/09 12:43:03;;;;;;;8.33;3.27;;;;;;;;;;5042479;28;20373;-85
2022/05/09 12:45:29;;;;;;;7.60;3.47;;;;;;;;;;5025271;28;20383;-85
2022/05/09 12:47:56;;;;;;;5.65;3.10;;;;;;;;;;5045178;28;20376;-85
2022/05/09 12:50:26;;;;;;;10.18;4.10;;;;;;;;;;5025601;28;20380;-85
2022/05/09 12:52:54;;;;;;;7.97;3.70;;;;;;;;;;5024405;28;20379;-84
2022/05/09 12:58:30;;;;;;;7.45;3.72;;;;;;;;;;5043387;28;20366;-86
2022/05/09 13:00:58;;;;;;;10.43;4.00;;;;;;;;;;5044436;28;20402;-85
2022/05/09 13:03:24;;;;;;;9.10;3.53;;;;;;;;;;5025978;28;20881;-84
2022/05/09 13:05:50;;;;;;;9.30;3.58;;;;;;;;;;5026286;28;20408;-85
2022/05/09 13:08:16;;;;;;;8.68;3.95;;;;;;;;;;5042706;28;20382;-85
2022/05/09 13:10:46;;;;;;;13.35;4.22;;;;;;;;;;5026251;28;20734;-87
2022/05/09 13:13:16;;;;;;;8.67;3.73;;;;;;;;;;5026838;28;20755;-84
2022/05/09 13:15:43;;;;;;;11.35;3.83;;;;;;;;;;5044572;28;20387;-84
2022/05/09 13:18:12;;;;;;;10.77;3.80;;;;;;;;;;5022021;28;20761;-85
2022/05/09 13:20:40;;;;;;;10.00;3.97;;;;;;;;;;5042978;28;20400;-85
2022/05/09 13:23:08;;;;;;;9.02;3.45;;;;;;;;;;5023519;28;20392;-84
2022/05/09 13:25:37;;;;;;;8.07;3.50;;;;;;;;;;5026004;28;20370;-82
2022/05/09 13:28:07;;;;;;;9.45;3.60;;;;;;;;;;5022252;28;20383;-84
2022/05/09 13:30:35;;;;;;;8.02;3.40;;;;;;;;;;5042347;28;20371;-85
2022/05/09 13:33:02;;;;;;;7.22;3.63;;;;;;;;;;5022654;28;20381;-84
2022/05/09 13:35:30;;;;;;;6.85;3.60;;;;;;;;;;5025313;28;20390;-85
2022/05/09 13:37:56;;;;;;;7.63;3.78;;;;;;;;;;5026177;28;20384;-84
2022/05/09 13:40:23;;;;;;;8.23;3.70;;;;;;;;;;5024634;28;20933;-85
2022/05/09 13:42:50;;;;;;;8.77;3.40;;;;;;;;;;5043284;28;20947;-86